sensor_id;sensor_type;location;lat;lon;timestamp;pressure;altitude;pressure_sealevel;temperature;humidity
76866;BME280;66647;52.124;5.416;2024-01-27T00:00:54;103583.69;;;2.00;100.00
76866;BME280;66647;52.124;5.416;2024-01-27T00:03:21;103581.19;;;1.99;100.00
76866;BME280;66647;52.124;5.416;2024-01-27T00:05:47;103578.69;;;1.97;100.00
76866;BME280;66647;52.124;5.416;2024-01-27T00:08:14;103584.53;;;1.94;100.00
76866;BME280;66647;52.124;5.416;2024-01-27T00:10:41;103578.47;;;1.92;100.00
76866;BME280;66647;52.124;5.416;2024-01-27T00:13:17;103582.22;;;1.91;100.00
76866;BME280;66647;52.124;5.416;2024-01-27T00:16:02;103585.31;;;1.88;100.00
76866;BME280;66647;52.124;5.416;2024-01-27T00:18:58;103591.97;;;1.86;100.00
76866;BME280;66647;52.124;5.416;2024-01-27T00:21:37;103587.59;;;1.85;100.00
76866;BME280;66647;52.124;5.416;2024-01-27T00:24:04;103579.66;;;1.83;100.00
76866;BME280;66647;52.124;5.416;2024-01-27T00:26:31;103585.28;;;1.82;100.00
76866;BME280;66647;52.124;5.416;2024-01-27T00:28:58;103591.09;;;1.79;100.00
76866;BME280;66647;52.124;5.416;2024-01-27T00:31:27;103581.50;;;1.76;100.00
76866;BME280;66647;52.124;5.416;2024-01-27T00:33:53;103590.66;;;1.75;100.00
76866;BME280;66647;52.124;5.416;2024-01-27T00:36:20;103580.22;;;1.72;100.00
76866;BME280;66647;52.124;5.416;2024-01-27T00:38:47;103582.28;;;1.70;100.00
76866;BME280;66647;52.124;5.416;2024-01-27T00:41:17;103590.41;;;1.70;100.00
76866;BME280;66647;52.124;5.416;2024-01-27T00:43:45;103582.69;;;1.67;100.00
76866;BME280;66647;52.124;5.416;2024-01-27T00:46:12;103591.00;;;1.65;100.00
76866;BME280;66647;52.124;5.416;2024-01-27T00:48:40;103585.78;;;1.64;100.00
76866;BME280;66647;52.124;5.416;2024-01-27T00:51:07;103588.91;;;1.61;100.00
76866;BME280;66647;52.124;5.416;2024-01-27T00:53:33;103577.25;;;1.60;100.00
76866;BME280;66647;52.124;5.416;2024-01-27T00:56:00;103581.84;;;1.60;100.00
76866;BME280;66647;52.124;5.416;2024-01-27T00:58:30;103581.38;;;1.56;100.00
76866;BME280;66647;52.124;5.416;2024-01-27T01:00:57;103589.69;;;1.55;100.00
76866;BME280;66647;52.124;5.416;2024-01-27T01:03:24;103579.06;;;1.53;100.00
76866;BME280;66647;52.124;5.416;2024-01-27T01:05:51;103585.50;;;1.52;100.00
76866;BME280;66647;52.124;5.416;2024-01-27T01:08:18;103587.56;;;1.50;100.00
76866;BME280;66647;52.124;5.416;2024-01-27T01:10:46;103587.13;;;1.47;100.00
76866;BME280;66647;52.124;5.416;2024-01-27T01:13:14;103589.19;;;1.45;100.00
76866;BME280;66647;52.124;5.416;2024-01-27T01:15:41;103589.59;;;1.42;100.00
76866;BME280;66647;52.124;5.416;2024-01-27T01:18:09;103589.97;;;1.39;100.00
76866;BME280;66647;52.124;5.416;2024-01-27T01:20:35;103598.09;;;1.39;100.00
76866;BME280;66647;52.124;5.416;2024-01-27T01:23:02;103603.88;;;1.35;100.00
76866;BME280;66647;52.124;5.416;2024-01-27T01:25:29;103597.00;;;1.33;100.00
76866;BME280;66647;52.124;5.416;2024-01-27T01:27:57;103603.44;;;1.32;100.00
76866;BME280;66647;52.124;5.416;2024-01-27T01:30:24;103603.63;;;1.30;100.00
76866;BME280;66647;52.124;5.416;2024-01-27T01:32:51;103595.13;;;1.27;100.00
76866;BME280;66647;52.124;5.416;2024-01-27T01:35:20;103595.31;;;1.25;100.00
76866;BME280;66647;52.124;5.416;2024-01-27T01:37:46;103587.41;;;1.24;100.00
76866;BME280;66647;52.124;5.416;2024-01-27T01:40:14;103588.44;;;1.23;100.00
76866;BME280;66647;52.124;5.416;2024-01-27T01:42:42;103586.94;;;1.20;100.00
76866;BME280;66647;52.124;5.416;2024-01-27T01:45:11;103590.69;;;1.19;100.00
76866;BME280;66647;52.124;5.416;2024-01-27T01:47:40;103595.06;;;1.20;100.00
76866;BME280;66647;52.124;5.416;2024-01-27T01:50:07;103593.19;;;1.21;100.00
76866;BME280;66647;52.124;5.416;2024-01-27T01:52:37;103597.75;;;1.20;100.00
76866;BME280;66647;52.124;5.416;2024-01-27T01:55:06;103599.81;;;1.18;100.00
76866;BME280;66647;52.124;5.416;2024-01-27T01:57:33;103604.56;;;1.16;100.00
76866;BME280;66647;52.124;5.416;2024-01-27T02:00:00;103611.00;;;1.15;100.00
76866;BME280;66647;52.124;5.416;2024-01-27T02:02:37;103608.31;;;1.15;100.00
76866;BME280;66647;52.124;5.416;2024-01-27T02:05:04;103606.81;;;1.13;100.00
76866;BME280;66647;52.124;5.416;2024-01-27T02:07:31;103607.03;;;1.11;100.00
76866;BME280;66647;52.124;5.416;2024-01-27T02:09:58;103600.97;;;1.09;100.00
76866;BME280;66647;52.124;5.416;2024-01-27T02:12:24;103594.53;;;1.10;100.00
76866;BME280;66647;52.124;5.416;2024-01-27T02:14:51;103598.47;;;1.08;100.00
76866;BME280;66647;52.124;5.416;2024-01-27T02:17:17;103598.66;;;1.06;100.00
76866;BME280;66647;52.124;5.416;2024-01-27T02:19:45;103606.13;;;1.04;100.00
76866;BME280;66647;52.124;5.416;2024-01-27T02:22:12;103604.63;;;1.01;100.00
76866;BME280;66647;52.124;5.416;2024-01-27T02:24:38;103597.16;;;0.97;100.00
76866;BME280;66647;52.124;5.416;2024-01-27T02:27:05;103596.50;;;0.95;100.00
76866;BME280;66647;52.124;5.416;2024-01-27T02:29:32;103600.22;;;0.94;100.00
76866;BME280;66647;52.124;5.416;2024-01-27T02:31:59;103600.88;;;0.96;100.00
76866;BME280;66647;52.124;5.416;2024-01-27T02:34:26;103601.50;;;0.98;100.00
76866;BME280;66647;52.124;5.416;2024-01-27T02:36:53;103593.38;;;0.98;100.00
76866;BME280;66647;52.124;5.416;2024-01-27T02:39:19;103596.91;;;0.98;100.00
76866;BME280;66647;52.124;5.416;2024-01-27T02:41:46;103597.75;;;0.99;100.00
76866;BME280;66647;52.124;5.416;2024-01-27T02:44:13;103592.59;;;0.97;100.00
76866;BME280;66647;52.124;5.416;2024-01-27T02:46:40;103595.06;;;0.99;100.00
76866;BME280;66647;52.124;5.416;2024-01-27T02:49:09;103606.69;;;0.99;100.00
76866;BME280;66647;52.124;5.416;2024-01-27T02:51:36;103610.44;;;0.98;100.00
76866;BME280;66647;52.124;5.416;2024-01-27T02:54:03;103607.53;;;1.00;100.00
76866;BME280;66647;52.124;5.416;2024-01-27T02:56:29;103610.88;;;1.02;100.00
76866;BME280;66647;52.124;5.416;2024-01-27T02:58:56;103608.19;;;1.02;100.00
76866;BME280;66647;52.124;5.416;2024-01-27T03:01:22;103607.16;;;1.03;100.00
76866;BME280;66647;52.124;5.416;2024-01-27T03:03:49;103600.91;;;1.02;100.00
76866;BME280;66647;52.124;5.416;2024-01-27T03:06:20;103608.00;;;1.04;100.00
76866;BME280;66647;52.124;5.416;2024-01-27T03:08:47;103607.16;;;1.03;100.00
76866;BME280;66647;52.124;5.416;2024-01-27T03:11:14;103607.16;;;1.03;100.00
76866;BME280;66647;52.124;5.416;2024-01-27T03:13:41;103605.94;;;1.06;100.00
76866;BME280;66647;52.124;5.416;2024-01-27T03:16:12;103605.28;;;1.04;100.00
76866;BME280;66647;52.124;5.416;2024-01-27T03:18:38;103603.41;;;1.04;100.00
76866;BME280;66647;52.124;5.416;2024-01-27T03:21:06;103615.06;;;1.05;100.00
76866;BME280;66647;52.124;5.416;2024-01-27T03:23:36;103610.69;;;1.04;100.00
76866;BME280;66647;52.124;5.416;2024-01-27T03:26:03;103600.91;;;1.02;100.00
76866;BME280;66647;52.124;5.416;2024-01-27T03:28:32;103601.75;;;1.03;100.00
76866;BME280;66647;52.124;5.416;2024-01-27T03:30:59;103599.25;;;1.01;100.00
76866;BME280;66647;52.124;5.416;2024-01-27T03:33:26;103605.88;;;0.99;100.00
76866;BME280;66647;52.124;5.416;2024-01-27T03:35:58;103597.75;;;0.99;100.00
76866;BME280;66647;52.124;5.416;2024-01-27T03:38:26;103594.03;;;1.00;100.00
76866;BME280;66647;52.124;5.416;2024-01-27T03:40:53;103600.47;;;0.99;100.00
76866;BME280;66647;52.124;5.416;2024-01-27T03:43:20;103605.03;;;0.98;100.00
76866;BME280;66647;52.124;5.416;2024-01-27T03:45:46;103617.69;;;0.98;100.00
76866;BME280;66647;52.124;5.416;2024-01-27T03:48:13;103606.09;;;0.97;100.00
76866;BME280;66647;52.124;5.416;2024-01-27T03:50:40;103608.97;;;0.96;100.00
76866;BME280;66647;52.124;5.416;2024-01-27T03:53:06;103612.72;;;0.95;100.00
76866;BME280;66647;52.124;5.416;2024-01-27T03:55:33;103618.31;;;0.93;100.00
76866;BME280;66647;52.124;5.416;2024-01-27T03:58:00;103613.09;;;0.92;100.00
76866;BME280;66647;52.124;5.416;2024-01-27T04:00:27;103618.50;;;0.92;100.00
76866;BME280;66647;52.124;5.416;2024-01-27T04:02:56;103618.69;;;0.90;100.00
76866;BME280;66647;52.124;5.416;2024-01-27T04:05:29;103626.41;;;0.93;100.00
76866;BME280;66647;52.124;5.416;2024-01-27T04:07:57;103613.75;;;0.94;100.00
76866;BME280;66647;52.124;5.416;2024-01-27T04:10:23;103619.13;;;0.94;100.00
76866;BME280;66647;52.124;5.416;2024-01-27T04:12:50;103622.88;;;0.93;100.00
76866;BME280;66647;52.124;5.416;2024-01-27T04:15:17;103622.22;;;0.91;100.00
76866;BME280;66647;52.124;5.416;2024-01-27T04:17:43;103626.97;;;0.89;100.00
76866;BME280;66647;52.124;5.416;2024-01-27T04:20:10;103631.53;;;0.88;100.00
76866;BME280;66647;52.124;5.416;2024-01-27T04:22:37;103617.41;;;0.86;100.00
76866;BME280;66647;52.124;5.416;2024-01-27T04:25:04;103617.84;;;0.90;100.00
76866;BME280;66647;52.124;5.416;2024-01-27T04:27:38;103615.72;;;0.85;100.00
76866;BME280;66647;52.124;5.416;2024-01-27T04:30:06;103614.06;;;0.84;100.00
76866;BME280;66647;52.124;5.416;2024-01-27T04:32:33;103621.69;;;0.81;100.00
76866;BME280;66647;52.124;5.416;2024-01-27T04:35:00;103630.19;;;0.78;100.00
76866;BME280;66647;52.124;5.416;2024-01-27T04:37:26;103633.06;;;0.76;100.00
76866;BME280;66647;52.124;5.416;2024-01-27T04:39:53;103629.72;;;0.74;100.00
76866;BME280;66647;52.124;5.416;2024-01-27T04:42:19;103633.84;;;0.70;100.00
76866;BME280;66647;52.124;5.416;2024-01-27T04:44:46;103627.59;;;0.70;100.00
76866;BME280;66647;52.124;5.416;2024-01-27T04:47:13;103637.75;;;0.67;100.00
76866;BME280;66647;52.124;5.416;2024-01-27T04:49:39;103636.72;;;0.68;100.00
76866;BME280;66647;52.124;5.416;2024-01-27T04:52:06;103628.81;;;0.67;100.00
76866;BME280;66647;52.124;5.416;2024-01-27T04:54:33;103620.09;;;0.65;100.00
76866;BME280;66647;52.124;5.416;2024-01-27T04:56:59;103629.22;;;0.64;100.00
76866;BME280;66647;52.124;5.416;2024-01-27T04:59:26;103637.94;;;0.66;100.00
76866;BME280;66647;52.124;5.416;2024-01-27T05:01:54;103639.63;;;0.67;100.00
76866;BME280;66647;52.124;5.416;2024-01-27T05:04:20;103626.75;;;0.69;100.00
76866;BME280;66647;52.124;5.416;2024-01-27T05:06:47;103634.84;;;0.69;100.00
76866;BME280;66647;52.124;5.416;2024-01-27T05:09:15;103622.38;;;0.68;100.00
76866;BME280;66647;52.124;5.416;2024-01-27T05:11:43;103631.69;;;0.65;100.00
76866;BME280;66647;52.124;5.416;2024-01-27T05:14:12;103642.50;;;0.65;100.00
76866;BME280;66647;52.124;5.416;2024-01-27T05:16:38;103634.22;;;0.67;100.00
76866;BME280;66647;52.124;5.416;2024-01-27T05:19:05;103634.22;;;0.67;100.00
76866;BME280;66647;52.124;5.416;2024-01-27T05:21:32;103609.06;;;0.66;100.00
76866;BME280;66647;52.124;5.416;2024-01-27T05:23:59;103610.94;;;0.66;100.00
76866;BME280;66647;52.124;5.416;2024-01-27T05:26:29;103617.59;;;0.63;100.00
76866;BME280;66647;52.124;5.416;2024-01-27T05:28:56;103606.78;;;0.63;100.00
76866;BME280;66647;52.124;5.416;2024-01-27T05:31:22;103598.88;;;0.62;100.00
76866;BME280;66647;52.124;5.416;2024-01-27T05:33:49;103605.94;;;0.63;100.00
76866;BME280;66647;52.124;5.416;2024-01-27T05:36:16;103603.44;;;0.61;100.00
76866;BME280;66647;52.124;5.416;2024-01-27T05:38:44;103603.44;;;0.61;100.00
76866;BME280;66647;52.124;5.416;2024-01-27T05:41:12;103609.88;;;0.60;100.00
76866;BME280;66647;52.124;5.416;2024-01-27T05:43:39;103621.03;;;0.57;100.00
76866;BME280;66647;52.124;5.416;2024-01-27T05:46:05;103606.72;;;0.57;100.00
76866;BME280;66647;52.124;5.416;2024-01-27T05:48:34;103602.16;;;0.57;100.00
76866;BME280;66647;52.124;5.416;2024-01-27T05:51:02;103607.34;;;0.59;100.00
76866;BME280;66647;52.124;5.416;2024-01-27T05:53:29;103609.88;;;0.60;100.00
76866;BME280;66647;52.124;5.416;2024-01-27T05:55:55;103602.78;;;0.59;100.00
76866;BME280;66647;52.124;5.416;2024-01-27T05:58:23;103603.81;;;0.58;100.00
76866;BME280;66647;52.124;5.416;2024-01-27T06:00:50;103610.91;;;0.59;100.00
76866;BME280;66647;52.124;5.416;2024-01-27T06:03:17;103596.38;;;0.60;100.00
76866;BME280;66647;52.124;5.416;2024-01-27T06:05:44;103603.44;;;0.61;100.00
76866;BME280;66647;52.124;5.416;2024-01-27T06:08:10;103599.06;;;0.60;100.00
76866;BME280;66647;52.124;5.416;2024-01-27T06:10:37;103602.78;;;0.59;100.00
76866;BME280;66647;52.124;5.416;2024-01-27T06:13:04;103614.63;;;0.58;100.00
76866;BME280;66647;52.124;5.416;2024-01-27T06:15:31;103613.78;;;0.58;100.00
76866;BME280;66647;52.124;5.416;2024-01-27T06:17:58;103620.22;;;0.57;100.00
76866;BME280;66647;52.124;5.416;2024-01-27T06:20:25;103610.91;;;0.59;100.00
76866;BME280;66647;52.124;5.416;2024-01-27T06:22:51;103616.28;;;0.59;100.00
76866;BME280;66647;52.124;5.416;2024-01-27T06:25:21;103624.56;;;0.58;100.00
76866;BME280;66647;52.124;5.416;2024-01-27T06:27:49;103608.00;;;0.61;100.00
76866;BME280;66647;52.124;5.416;2024-01-27T06:30:16;103616.47;;;0.58;100.00
76866;BME280;66647;52.124;5.416;2024-01-27T06:32:43;103620.00;;;0.58;100.00
76866;BME280;66647;52.124;5.416;2024-01-27T06:35:10;103612.28;;;0.55;100.00
76866;BME280;66647;52.124;5.416;2024-01-27T06:37:38;103620.41;;;0.55;100.00
76866;BME280;66647;52.124;5.416;2024-01-27T06:40:07;103621.22;;;0.56;100.00
76866;BME280;66647;52.124;5.416;2024-01-27T06:42:36;103621.22;;;0.56;100.00
76866;BME280;66647;52.124;5.416;2024-01-27T06:45:03;103622.44;;;0.53;100.00
76866;BME280;66647;52.124;5.416;2024-01-27T06:47:32;103618.06;;;0.52;100.00
76866;BME280;66647;52.124;5.416;2024-01-27T06:49:58;103621.78;;;0.51;100.00
76866;BME280;66647;52.124;5.416;2024-01-27T06:52:25;103618.44;;;0.49;100.00
76866;BME280;66647;52.124;5.416;2024-01-27T06:54:53;103617.81;;;0.47;100.00
76866;BME280;66647;52.124;5.416;2024-01-27T06:57:20;103622.56;;;0.45;100.00
76866;BME280;66647;52.124;5.416;2024-01-27T06:59:48;103625.25;;;0.45;100.00
76866;BME280;66647;52.124;5.416;2024-01-27T07:02:22;103624.78;;;0.42;100.00
76866;BME280;66647;52.124;5.416;2024-01-27T07:04:50;103627.03;;;0.38;100.00
76866;BME280;66647;52.124;5.416;2024-01-27T07:07:17;103626.38;;;0.36;100.00
76866;BME280;66647;52.124;5.416;2024-01-27T07:09:44;103631.59;;;0.38;100.00
76866;BME280;66647;52.124;5.416;2024-01-27T07:12:11;103631.59;;;0.38;100.00
76866;BME280;66647;52.124;5.416;2024-01-27T07:14:37;103637.81;;;0.38;100.00
76866;BME280;66647;52.124;5.416;2024-01-27T07:17:04;103639.88;;;0.36;100.00
76866;BME280;66647;52.124;5.416;2024-01-27T07:19:31;103655.41;;;0.34;100.00
76866;BME280;66647;52.124;5.416;2024-01-27T07:21:58;103651.03;;;0.33;100.00
76866;BME280;66647;52.124;5.416;2024-01-27T07:24:26;103656.66;;;0.31;100.00
76866;BME280;66647;52.124;5.416;2024-01-27T07:26:53;103654.34;;;0.28;100.00
76866;BME280;66647;52.124;5.416;2024-01-27T07:29:22;103660.38;;;0.30;100.00
76866;BME280;66647;52.124;5.416;2024-01-27T07:31:49;103657.88;;;0.29;100.00
76866;BME280;66647;52.124;5.416;2024-01-27T07:34:16;103664.47;;;0.26;100.00
76866;BME280;66647;52.124;5.416;2024-01-27T07:36:45;103651.63;;;0.28;100.00
76866;BME280;66647;52.124;5.416;2024-01-27T07:39:12;103662.44;;;0.28;100.00
76866;BME280;66647;52.124;5.416;2024-01-27T07:41:38;103661.22;;;0.31;100.00
76866;BME280;66647;52.124;5.416;2024-01-27T07:44:13;103660.81;;;0.34;100.00
76866;BME280;66647;52.124;5.416;2024-01-27T07:46:41;103666.88;;;0.36;100.00
76866;BME280;66647;52.124;5.416;2024-01-27T07:49:08;103670.22;;;0.38;100.00
76866;BME280;66647;52.124;5.416;2024-01-27T07:51:38;103668.16;;;0.40;100.00
76866;BME280;66647;52.124;5.416;2024-01-27T07:54:06;103673.00;;;0.45;100.00
76866;BME280;66647;52.124;5.416;2024-01-27T07:56:38;103671.41;;;0.50;100.00
76866;BME280;66647;52.124;5.416;2024-01-27T07:59:04;103678.75;;;0.56;100.00
76866;BME280;66647;52.124;5.416;2024-01-27T08:01:31;103675.97;;;0.64;100.00
76866;BME280;66647;52.124;5.416;2024-01-27T08:04:00;103675.38;;;0.69;100.00
76866;BME280;66647;52.124;5.416;2024-01-27T08:06:28;103674.59;;;0.75;100.00
76866;BME280;66647;52.124;5.416;2024-01-27T08:08:58;103679.91;;;0.83;100.00
76866;BME280;66647;52.124;5.416;2024-01-27T08:11:28;103682.69;;;0.90;100.00
76866;BME280;66647;52.124;5.416;2024-01-27T08:13:58;103673.22;;;1.00;100.00
76866;BME280;66647;52.124;5.416;2024-01-27T08:16:24;103674.66;;;1.18;100.00
76866;BME280;66647;52.124;5.416;2024-01-27T08:18:51;103675.78;;;1.51;100.00
76866;BME280;66647;52.124;5.416;2024-01-27T08:21:41;103672.88;;;1.53;100.00
76866;BME280;66647;52.124;5.416;2024-01-27T08:24:11;103683.00;;;1.72;100.00
76866;BME280;66647;52.124;5.416;2024-01-27T08:26:39;103680.00;;;2.77;100.00
76866;BME280;66647;52.124;5.416;2024-01-27T08:29:05;103676.16;;;3.65;100.00
76866;BME280;66647;52.124;5.416;2024-01-27T08:31:34;103673.75;;;4.73;100.00
76866;BME280;66647;52.124;5.416;2024-01-27T08:34:04;103664.31;;;5.38;100.00
76866;BME280;66647;52.124;5.416;2024-01-27T08:36:34;103665.19;;;5.82;100.00
76866;BME280;66647;52.124;5.416;2024-01-27T08:39:01;103674.78;;;6.10;100.00
76866;BME280;66647;52.124;5.416;2024-01-27T08:41:35;103667.97;;;6.85;100.00
76866;BME280;66647;52.124;5.416;2024-01-27T08:44:01;103666.53;;;7.24;100.00
76866;BME280;66647;52.124;5.416;2024-01-27T08:46:28;103663.75;;;7.43;100.00
76866;BME280;66647;52.124;5.416;2024-01-27T08:48:55;103662.16;;;8.17;100.00
76866;BME280;66647;52.124;5.416;2024-01-27T08:51:22;103662.72;;;9.27;91.42
76866;BME280;66647;52.124;5.416;2024-01-27T08:53:51;103663.03;;;9.64;87.74
76866;BME280;66647;52.124;5.416;2024-01-27T08:56:18;103662.78;;;10.21;82.11
76866;BME280;66647;52.124;5.416;2024-01-27T08:58:45;103663.88;;;10.42;80.05
76866;BME280;66647;52.124;5.416;2024-01-27T09:01:16;103675.13;;;8.73;78.88
76866;BME280;66647;52.124;5.416;2024-01-27T09:03:42;103682.31;;;7.22;85.23
76866;BME280;66647;52.124;5.416;2024-01-27T09:06:09;103689.97;;;6.54;89.54
76866;BME280;66647;52.124;5.416;2024-01-27T09:08:37;103686.06;;;6.13;92.83
76866;BME280;66647;52.124;5.416;2024-01-27T09:11:03;103690.81;;;5.74;93.96
76866;BME280;66647;52.124;5.416;2024-01-27T09:13:30;103688.19;;;5.36;96.58
76866;BME280;66647;52.124;5.416;2024-01-27T09:15:57;103687.16;;;5.06;98.19
76866;BME280;66647;52.124;5.416;2024-01-27T09:18:28;103691.72;;;4.81;99.00
76866;BME280;66647;52.124;5.416;2024-01-27T09:20:55;103698.03;;;4.68;100.00
76866;BME280;66647;52.124;5.416;2024-01-27T09:23:28;103698.47;;;4.65;100.00
76866;BME280;66647;52.124;5.416;2024-01-27T09:25:55;103704.81;;;4.52;100.00
76866;BME280;66647;52.124;5.416;2024-01-27T09:29:06;103699.63;;;4.37;100.00
76866;BME280;66647;52.124;5.416;2024-01-27T09:31:34;103699.84;;;4.29;100.00
76866;BME280;66647;52.124;5.416;2024-01-27T09:34:01;103703.38;;;4.30;100.00
76866;BME280;66647;52.124;5.416;2024-01-27T09:36:28;103714.47;;;4.35;100.00
76866;BME280;66647;52.124;5.416;2024-01-27T09:38:55;103712.16;;;4.38;100.00
76866;BME280;66647;52.124;5.416;2024-01-27T09:41:40;103727.72;;;4.63;100.00
76866;BME280;66647;52.124;5.416;2024-01-27T09:44:20;103712.91;;;5.60;100.00
76866;BME280;66647;52.124;5.416;2024-01-27T09:46:47;103718.97;;;6.66;100.00
76866;BME280;66647;52.124;5.416;2024-01-27T09:49:46;103720.50;;;8.22;92.82
76866;BME280;66647;52.124;5.416;2024-01-27T09:55:45;103731.97;;;9.73;83.75
76866;BME280;66647;52.124;5.416;2024-01-27T09:58:32;103726.00;;;10.31;79.54
76866;BME280;66647;52.124;5.416;2024-01-27T10:01:16;103726.25;;;10.73;75.77
76866;BME280;66647;52.124;5.416;2024-01-27T10:07:27;103742.94;;;11.16;72.37
76866;BME280;66647;52.124;5.416;2024-01-27T10:10:02;103736.72;;;11.25;73.16
76866;BME280;66647;52.124;5.416;2024-01-27T10:16:24;103729.88;;;12.29;70.19
76866;BME280;66647;52.124;5.416;2024-01-27T10:19:12;103738.31;;;12.69;69.15
76866;BME280;66647;52.124;5.416;2024-01-27T10:21:41;103727.09;;;12.86;63.88
76866;BME280;66647;52.124;5.416;2024-01-27T10:24:26;103737.28;;;12.86;66.97
76866;BME280;66647;52.124;5.416;2024-01-27T10:37:51;103757.81;;;13.35;62.44
76866;BME280;66647;52.124;5.416;2024-01-27T10:40:49;103765.53;;;13.38;62.23
76866;BME280;66647;52.124;5.416;2024-01-27T10:57:37;103730.81;;;13.78;60.69
76866;BME280;66647;52.124;5.416;2024-01-27T11:00:17;103717.56;;;13.85;58.64
76866;BME280;66647;52.124;5.416;2024-01-27T11:02:45;103724.75;;;13.96;56.90
76866;BME280;66647;52.124;5.416;2024-01-27T11:05:13;103723.63;;;13.72;57.82
76866;BME280;66647;52.124;5.416;2024-01-27T11:07:45;103716.41;;;14.06;58.27
76866;BME280;66647;52.124;5.416;2024-01-27T11:10:16;103720.22;;;14.31;55.98
76866;BME280;66647;52.124;5.416;2024-01-27T11:13:14;103717.34;;;14.66;56.88
76866;BME280;66647;52.124;5.416;2024-01-27T11:16:21;103713.06;;;14.25;57.51
76866;BME280;66647;52.124;5.416;2024-01-27T11:18:49;103720.22;;;14.41;56.16
76866;BME280;66647;52.124;5.416;2024-01-27T11:31:57;103713.88;;;14.95;52.20
76866;BME280;66647;52.124;5.416;2024-01-27T11:34:52;103715.22;;;15.02;55.06
76866;BME280;66647;52.124;5.416;2024-01-27T11:41:04;103712.03;;;14.85;51.88
76866;BME280;66647;52.124;5.416;2024-01-27T11:43:31;103711.63;;;14.53;53.92
76866;BME280;66647;52.124;5.416;2024-01-27T11:46:09;103703.47;;;14.82;52.80
76866;BME280;66647;52.124;5.416;2024-01-27T11:49:55;103702.78;;;15.00;53.05
76866;BME280;66647;52.124;5.416;2024-01-27T11:52:27;103694.66;;;14.74;53.14
76866;BME280;66647;52.124;5.416;2024-01-27T11:55:18;103689.00;;;14.95;53.02
76866;BME280;66647;52.124;5.416;2024-01-27T11:58:32;103687.66;;;14.92;53.97
76866;BME280;66647;52.124;5.416;2024-01-27T12:00:59;103685.44;;;14.94;50.82
76866;BME280;66647;52.124;5.416;2024-01-27T12:03:49;103682.75;;;14.79;52.92
76866;BME280;66647;52.124;5.416;2024-01-27T12:06:20;103682.53;;;14.65;52.17
76866;BME280;66647;52.124;5.416;2024-01-27T12:09:27;103686.47;;;14.59;53.68
76866;BME280;66647;52.124;5.416;2024-01-27T12:11:54;103690.38;;;14.48;52.44
76866;BME280;66647;52.124;5.416;2024-01-27T12:14:23;103694.47;;;14.61;52.80
76866;BME280;66647;52.124;5.416;2024-01-27T12:16:57;103684.97;;;14.77;52.85
76866;BME280;66647;52.124;5.416;2024-01-27T12:19:33;103682.81;;;15.13;51.76
76866;BME280;66647;52.124;5.416;2024-01-27T12:25:21;103676.91;;;14.91;51.68
76866;BME280;66647;52.124;5.416;2024-01-27T12:27:51;103675.19;;;14.35;52.52
76866;BME280;66647;52.124;5.416;2024-01-27T12:30:44;103668.28;;;14.48;53.76
76866;BME280;66647;52.124;5.416;2024-01-27T12:33:35;103671.06;;;14.43;54.07
76866;BME280;66647;52.124;5.416;2024-01-27T12:43:45;103675.31;;;14.05;54.46
76866;BME280;66647;52.124;5.416;2024-01-27T12:46:18;103691.38;;;13.42;54.85
76866;BME280;66647;52.124;5.416;2024-01-27T12:48:52;103692.41;;;12.95;55.21
76866;BME280;66647;52.124;5.416;2024-01-27T12:51:22;103695.97;;;12.86;56.79
76866;BME280;66647;52.124;5.416;2024-01-27T12:53:49;103694.69;;;12.41;57.26
76866;BME280;66647;52.124;5.416;2024-01-27T12:56:16;103692.84;;;11.99;59.41
76866;BME280;66647;52.124;5.416;2024-01-27T12:58:43;103691.53;;;11.75;60.70
76866;BME280;66647;52.124;5.416;2024-01-27T13:01:23;103686.06;;;11.43;61.62
76866;BME280;66647;52.124;5.416;2024-01-27T13:03:55;103690.69;;;11.10;63.05
76866;BME280;66647;52.124;5.416;2024-01-27T13:06:41;103682.63;;;10.99;63.71
76866;BME280;66647;52.124;5.416;2024-01-27T13:09:08;103673.72;;;10.87;64.12
76866;BME280;66647;52.124;5.416;2024-01-27T13:11:53;103676.81;;;10.68;63.56
76866;BME280;66647;52.124;5.416;2024-01-27T13:14:19;103680.78;;;10.56;64.81
76866;BME280;66647;52.124;5.416;2024-01-27T13:16:47;103671.22;;;10.58;65.47
76866;BME280;66647;52.124;5.416;2024-01-27T13:19:14;103670.88;;;10.55;64.49
76866;BME280;66647;52.124;5.416;2024-01-27T13:21:40;103673.19;;;10.41;64.81
76866;BME280;66647;52.124;5.416;2024-01-27T13:24:07;103671.47;;;10.35;66.02
76866;BME280;66647;52.124;5.416;2024-01-27T13:26:38;103671.22;;;10.36;67.09
76866;BME280;66647;52.124;5.416;2024-01-27T13:32:26;103662.25;;;10.02;66.88
76866;BME280;66647;52.124;5.416;2024-01-27T13:34:53;103654.94;;;9.91;68.22
76866;BME280;66647;52.124;5.416;2024-01-27T13:37:20;103656.94;;;9.79;68.12
76866;BME280;66647;52.124;5.416;2024-01-27T13:39:47;103651.84;;;9.66;68.70
76866;BME280;66647;52.124;5.416;2024-01-27T13:42:13;103662.78;;;9.66;68.94
76866;BME280;66647;52.124;5.416;2024-01-27T13:44:43;103658.22;;;9.55;68.84
76866;BME280;66647;52.124;5.416;2024-01-27T13:50:15;103645.38;;;9.38;69.94
76866;BME280;66647;52.124;5.416;2024-01-27T13:52:43;103649.34;;;9.48;70.38
76866;BME280;66647;52.124;5.416;2024-01-27T13:55:11;103649.34;;;9.48;70.63
76866;BME280;66647;52.124;5.416;2024-01-27T13:57:38;103651.16;;;9.59;71.22
76866;BME280;66647;52.124;5.416;2024-01-27T14:00:05;103652.75;;;9.55;70.82
76866;BME280;66647;52.124;5.416;2024-01-27T14:02:32;103648.16;;;9.43;71.85
76866;BME280;66647;52.124;5.416;2024-01-27T14:05:02;103642.38;;;9.40;72.09
76866;BME280;66647;52.124;5.416;2024-01-27T14:07:29;103655.50;;;9.38;72.67
76866;BME280;66647;52.124;5.416;2024-01-27T14:09:56;103657.47;;;9.26;72.69
76866;BME280;66647;52.124;5.416;2024-01-27T14:12:24;103659.28;;;9.20;73.35